Time;durP1;ratioP1;P1;durP2;ratioP2;P2;SDS_P1;SDS_P2;PMS_P1;PMS_P2;Temp;Humidity;BMP_temperature;BMP_pressure;BME280_temperature;BME280_humidity;BME280_pressure;Samples;Min_cycle;Max_cycle;Signal;HPM_P1;HPM_P2
2022/04/13 00:01:55;;;;;;;9.93;4.50;;;;;;;14.79;30.71;95333.13;5032597;28;20443;-58
2022/04/13 00:04:22;;;;;;;7.53;4.30;;;;;;;14.47;31.00;95337.97;5032671;28;20510;-61
2022/04/13 00:06:49;;;;;;;7.33;4.73;;;;;;;14.67;30.88;95343.19;5032762;28;20467;-62
2022/04/13 00:09:16;;;;;;;8.70;4.60;;;;;;;14.64;31.21;95343.75;5033280;28;20863;-60
2022/04/13 00:11:43;;;;;;;8.27;4.40;;;;;;;14.50;31.25;95337.47;5032325;28;20443;-54
2022/04/13 00:14:10;;;;;;;6.77;4.37;;;;;;;14.51;31.05;95344.31;5032299;28;20505;-63
2022/04/13 00:16:39;;;;;;;6.30;4.30;;;;;;;14.46;31.33;95330.34;5031864;28;21071;-62
2022/04/13 00:19:06;;;;;;;7.93;4.53;;;;;;;14.48;31.63;95336.94;5032249;28;20514;-54
2022/04/13 00:21:33;;;;;;;6.30;4.57;;;;;;;14.67;31.25;95337.91;5032366;28;20509;-53
2022/04/13 00:24:00;;;;;;;5.83;4.30;;;;;;;14.54;31.15;95333.25;5032964;28;20534;-49
2022/04/13 00:26:28;;;;;;;11.83;4.47;;;;;;;14.02;32.37;95340.69;5031812;28;20910;-54
2022/04/13 00:28:54;;;;;;;7.27;4.50;;;;;;;13.67;32.96;95348.59;5030972;28;20447;-53
2022/04/13 00:31:21;;;;;;;10.73;4.70;;;;;;;13.87;32.95;95344.13;5031874;28;21154;-60
2022/04/13 00:33:48;;;;;;;8.47;4.27;;;;;;;13.97;32.54;95341.50;5032617;28;20440;-61
2022/04/13 00:36:15;;;;;;;7.13;4.73;;;;;;;13.67;32.83;95338.06;5031589;28;20447;-57
2022/04/13 00:38:42;;;;;;;6.77;4.27;;;;;;;13.97;32.32;95343.34;5031779;28;20451;-58
2022/04/13 00:41:08;;;;;;;7.50;4.60;;;;;;;13.91;32.41;95325.94;5031104;28;20439;-57
2022/04/13 00:43:35;;;;;;;6.80;4.57;;;;;;;13.63;33.11;95343.06;5031963;28;20436;-57
2022/04/13 00:46:02;;;;;;;7.03;4.27;;;;;;;14.04;32.34;95333.31;5031165;28;20474;-54
2022/04/13 00:48:39;;;;;;;8.00;4.17;;;;;;;14.17;32.14;95343.31;5032069;28;20982;-57
2022/04/13 00:51:07;;;;;;;6.20;4.60;;;;;;;14.21;31.97;95339.09;5030503;28;20534;-57
2022/04/13 00:53:35;;;;;;;5.47;3.90;;;;;;;14.35;31.71;95342.78;5031681;28;20627;-58
2022/04/13 00:56:04;;;;;;;4.50;3.90;;;;;;;14.18;32.42;95350.16;5030778;28;20482;-58
2022/04/13 00:58:33;;;;;;;10.37;4.10;;;;;;;14.05;32.32;95351.47;5031789;28;20515;-60
2022/04/13 01:01:03;;;;;;;8.27;4.07;;;;;;;14.31;32.17;95344.34;5030915;28;20447;-55
2022/04/13 01:03:30;;;;;;;6.10;3.80;;;;;;;14.39;31.56;95341.19;5031687;28;20526;-60
2022/04/13 01:05:58;;;;;;;7.10;4.20;;;;;;;14.09;32.18;95346.47;5031297;28;20455;-53
2022/04/13 01:08:27;;;;;;;7.07;4.30;;;;;;;14.18;32.02;95350.94;5031244;28;20605;-60
2022/04/13 01:10:56;;;;;;;6.13;4.30;;;;;;;14.17;32.00;95348.56;5030976;28;20550;-61
2022/04/13 01:13:23;;;;;;;7.77;4.30;;;;;;;12.56;34.61;95352.75;5031330;28;20440;-60
2022/04/13 01:15:50;;;;;;;6.10;4.30;;;;;;;13.46;33.46;95349.66;5030783;28;20451;-61
2022/04/13 01:18:18;;;;;;;11.63;4.00;;;;;;;13.79;32.92;95349.13;5031195;28;20495;-56
2022/04/13 01:20:56;;;;;;;7.33;4.27;;;;;;;13.64;33.21;95349.13;5031038;28;20456;-53
2022/04/13 01:23:24;;;;;;;8.90;4.10;;;;;;;13.49;33.78;95346.47;5030919;28;20432;-58
2022/04/13 01:25:53;;;;;;;4.93;3.67;;;;;;;13.55;33.32;95345.44;5030962;28;20490;-63
2022/04/13 01:28:20;;;;;;;7.70;4.30;;;;;;;13.41;33.22;95347.00;5029502;28;20436;-62
2022/04/13 01:30:53;;;;;;;9.63;4.27;;;;;;;13.81;32.92;95347.03;5030645;28;20444;-62
2022/04/13 01:33:20;;;;;;;7.20;3.97;;;;;;;13.47;33.51;95348.59;5030847;28;20989;-53
2022/04/13 01:35:47;;;;;;;6.67;4.27;;;;;;;13.40;34.04;95350.69;5030591;28;20546;-62
2022/04/13 01:38:13;;;;;;;7.10;4.47;;;;;;;13.55;33.65;95353.34;5030668;28;21009;-57
2022/04/13 01:40:42;;;;;;;8.73;5.17;;;;;;;13.43;33.96;95347.56;5030181;28;20892;-60
2022/04/13 01:43:09;;;;;;;9.33;6.33;;;;;;;13.48;33.43;95344.91;5030687;28;20466;-58
2022/04/13 01:45:36;;;;;;;11.83;7.13;;;;;;;13.62;33.54;95348.59;5030566;28;20982;-64
2022/04/13 01:48:05;;;;;;;12.57;6.70;;;;;;;13.48;33.64;95345.72;5030507;28;20439;-60
2022/04/13 01:50:31;;;;;;;15.13;7.07;;;;;;;13.22;34.21;95346.72;5029913;28;20452;-64
2022/04/13 01:52:58;;;;;;;17.23;8.57;;;;;;;12.75;34.96;95349.44;5030775;28;20448;-66
2022/04/13 01:55:26;;;;;;;10.17;5.93;;;;;;;13.09;33.96;95342.75;5030886;28;20432;-63
2022/04/13 01:57:53;;;;;;;14.43;6.60;;;;;;;13.24;34.24;95349.88;5030551;28;20547;-65
2022/04/13 02:00:20;;;;;;;12.83;7.03;;;;;;;13.39;33.83;95346.47;5030092;28;20878;-64
2022/04/13 02:02:47;;;;;;;11.13;6.77;;;;;;;13.45;33.81;95340.19;5029599;28;20431;-65
2022/04/13 02:05:15;;;;;;;10.90;6.03;;;;;;;13.48;33.41;95339.66;5030164;28;20440;-59
2022/04/13 02:07:42;;;;;;;10.87;6.80;;;;;;;12.55;35.34;95341.47;5030889;28;20428;-55
2022/04/13 02:10:09;;;;;;;13.67;6.20;;;;;;;12.10;36.01;95349.09;5029840;28;20443;-66
2022/04/13 02:12:37;;;;;;;12.53;5.53;;;;;;;12.26;35.83;95353.41;5030146;28;20447;-55
2022/04/13 02:15:06;;;;;;;9.03;5.17;;;;;;;12.71;35.08;95345.75;5029434;28;20459;-52
2022/04/13 02:17:32;;;;;;;12.60;6.90;;;;;;;12.63;35.49;95343.59;5029782;28;20487;-60
2022/04/13 02:19:59;;;;;;;12.77;6.83;;;;;;;12.54;35.49;95345.13;5029659;28;20440;-61
2022/04/13 02:22:26;;;;;;;14.43;6.40;;;;;;;11.34;37.89;95354.78;5030340;28;20451;-61
2022/04/13 02:25:13;;;;;;;14.40;6.80;;;;;;;11.91;36.98;95347.94;5029911;28;20447;-63
2022/04/13 02:27:40;;;;;;;10.27;6.00;;;;;;;12.25;36.25;95343.94;5029799;28;20436;-55
2022/04/13 02:30:08;;;;;;;10.60;5.83;;;;;;;12.55;35.63;95346.75;5029554;28;20459;-58
2022/04/13 02:32:39;;;;;;;15.97;6.40;;;;;;;12.07;36.27;95339.91;5029963;28;20446;-56
2022/04/13 02:35:07;;;;;;;16.23;6.13;;;;;;;12.36;36.05;95337.69;5029582;28;20446;-53
2022/04/13 02:37:34;;;;;;;12.93;6.40;;;;;;;12.38;36.15;95332.19;5029521;28;20499;-57
2022/04/13 02:40:01;;;;;;;16.47;6.70;;;;;;;12.13;36.47;95338.09;5029831;28;20436;-56
2022/04/13 02:42:34;;;;;;;12.43;6.13;;;;;;;12.31;35.78;95345.56;5029571;28;21265;-56
2022/04/13 02:45:03;;;;;;;15.70;6.60;;;;;;;12.09;36.70;95339.66;5029479;28;20531;-56
2022/04/13 02:47:35;;;;;;;12.23;7.00;;;;;;;11.99;36.56;95343.00;5029895;28;20455;-56
2022/04/13 02:50:03;;;;;;;14.73;6.30;;;;;;;12.05;36.60;95343.81;5029247;28;20440;-54
2022/04/13 02:52:30;;;;;;;12.10;7.20;;;;;;;12.24;36.20;95332.63;5029105;28;20968;-57
2022/04/13 02:54:58;;;;;;;14.67;7.30;;;;;;;11.90;36.63;95339.25;5028907;28;21066;-61
2022/04/13 02:57:25;;;;;;;18.43;7.17;;;;;;;11.96;36.74;95334.81;5029584;28;20463;-60
2022/04/13 02:59:52;;;;;;;16.20;7.43;;;;;;;12.16;36.27;95345.47;5029222;28;20444;-53
2022/04/13 03:02:19;;;;;;;19.07;8.40;;;;;;;11.97;36.50;95339.06;5029050;28;20443;-57
2022/04/13 03:04:47;;;;;;;20.80;8.43;;;;;;;12.12;36.38;95329.41;5029107;28;20454;-55
2022/04/13 03:07:16;;;;;;;27.87;8.73;;;;;;;11.70;36.79;95346.97;5029408;28;20535;-55
2022/04/13 03:09:44;;;;;;;21.07;9.67;;;;;;;11.96;36.98;95356.63;5029116;28;20478;-58
2022/04/13 03:12:12;;;;;;;20.43;9.23;;;;;;;11.99;36.86;95347.44;5029253;28;20446;-60
2022/04/13 03:14:43;;;;;;;17.43;8.20;;;;;;;12.02;36.47;95357.47;5028832;28;20458;-60
2022/04/13 03:17:10;;;;;;;15.87;8.77;;;;;;;11.68;36.83;95356.13;5028593;28;20480;-58
2022/04/13 03:19:37;;;;;;;15.38;8.05;;;;;;;11.63;37.57;95353.44;5028906;28;20523;-56
2022/04/13 03:22:04;;;;;;;13.90;8.32;;;;;;;11.62;37.06;95359.75;5028831;28;20209;-58
2022/04/13 03:24:31;;;;;;;17.20;7.97;;;;;;;11.73;36.75;95353.56;5028962;28;20325;-61
2022/04/13 03:26:57;;;;;;;18.60;8.00;;;;;;;11.75;37.09;95369.88;5028680;28;20479;-58
2022/04/13 03:29:24;;;;;;;20.37;9.87;;;;;;;11.85;37.24;95362.06;5028261;28;20822;-63
2022/04/13 03:31:51;;;;;;;20.67;8.77;;;;;;;10.80;39.33;95362.59;5028906;28;20447;-56
2022/04/13 03:34:21;;;;;;;21.30;9.53;;;;;;;10.05;41.13;95377.31;5028043;28;20255;-59
2022/04/13 03:36:49;;;;;;;25.15;10.65;;;;;;;9.82;40.66;95377.47;5029267;28;20450;-56
2022/04/13 03:39:16;;;;;;;20.02;11.75;;;;;;;10.23;40.83;95371.84;5028238;28;20294;-56
2022/04/13 03:41:44;;;;;;;26.63;10.95;;;;;;;10.49;39.92;95371.13;5028549;28;20197;-61
2022/04/13 03:44:10;;;;;;;19.35;9.32;;;;;;;10.92;39.62;95368.53;5028407;28;20197;-54
2022/04/13 03:46:38;;;;;;;18.83;9.45;;;;;;;10.87;39.58;95381.59;5028442;28;20189;-59
2022/04/13 03:49:06;;;;;;;19.20;9.27;;;;;;;11.22;38.55;95373.31;5028521;28;20216;-56
2022/04/13 03:51:33;;;;;;;26.13;10.10;;;;;;;11.18;38.43;95380.84;5027967;28;20654;-52
2022/04/13 03:54:01;;;;;;;28.85;9.68;;;;;;;11.46;38.19;95379.81;5028430;28;20223;-58
2022/04/13 03:56:29;;;;;;;17.55;8.82;;;;;;;11.31;37.88;95377.06;5028182;28;20197;-57
2022/04/13 03:58:57;;;;;;;22.70;9.25;;;;;;;11.29;38.96;95383.59;5028913;28;20263;-56
2022/04/13 04:01:25;;;;;;;16.08;8.65;;;;;;;11.53;38.71;95392.75;5029498;28;20201;-59
2022/04/13 04:03:53;;;;;;;21.05;10.27;;;;;;;11.08;39.06;95393.88;5030059;28;20215;-54
2022/04/13 04:06:23;;;;;;;25.77;11.40;;;;;;;10.98;39.17;95392.97;5028460;28;20203;-54
2022/04/13 04:08:51;;;;;;;25.65;10.80;;;;;;;10.99;39.10;95390.09;5028142;28;20451;-61
2022/04/13 04:11:18;;;;;;;37.70;12.63;;;;;;;10.91;38.87;95402.84;5030401;28;20296;-56
2022/04/13 04:13:46;;;;;;;40.65;14.48;;;;;;;10.98;39.35;95401.59;5029333;28;20574;-57
2022/04/13 04:16:14;;;;;;;55.88;16.80;;;;;;;10.98;39.69;95409.47;5028344;28;20204;-58
2022/04/13 04:18:41;;;;;;;45.72;19.00;;;;;;;11.15;38.69;95398.91;5028982;28;20236;-55
2022/04/13 04:21:09;;;;;;;45.95;20.30;;;;;;;11.38;38.37;95408.34;5028233;28;20672;-49
2022/04/13 04:23:36;;;;;;;46.00;21.33;;;;;;;11.22;38.83;95410.78;5027241;28;20243;-52
2022/04/13 04:26:03;;;;;;;46.92;22.60;;;;;;;11.39;38.61;95409.91;5027613;28;20539;-57
2022/04/13 04:28:30;;;;;;;48.53;21.35;;;;;;;11.15;38.65;95412.81;5028720;28;20193;-58
2022/04/13 04:30:57;;;;;;;49.15;23.00;;;;;;;11.34;38.17;95417.72;5027868;28;20562;-51
2022/04/13 04:33:25;;;;;;;45.30;23.83;;;;;;;11.15;38.31;95425.94;5028778;28;20217;-59
2022/04/13 04:35:52;;;;;;;58.47;27.40;;;;;;;11.32;38.44;95436.34;5028298;28;20443;-52
2022/04/13 04:38:19;;;;;;;54.95;28.83;;;;;;;11.21;38.30;95440.69;5029119;28;20476;-59
2022/04/13 04:40:46;;;;;;;51.50;27.73;;;;;;;10.66;38.61;95447.88;5031408;28;20193;-56
2022/04/13 04:43:13;;;;;;;47.60;25.02;;;;;;;9.34;41.21;95450.44;5032428;28;20432;-57
2022/04/13 04:45:40;;;;;;;49.22;25.42;;;;;;;9.48;41.30;95451.75;5031576;28;20497;-61
2022/04/13 04:48:07;;;;;;;44.25;24.10;;;;;;;10.45;39.74;95448.66;5032010;28;20181;-57
2022/04/13 04:50:34;;;;;;;44.20;24.70;;;;;;;10.78;39.15;95445.97;5031706;28;20308;-55
2022/04/13 04:53:02;;;;;;;48.45;23.23;;;;;;;10.72;38.88;95446.91;5031777;28;20194;-59
2022/04/13 04:55:31;;;;;;;101.18;57.97;;;;;;;10.04;42.17;95459.50;5031656;28;20209;-59
2022/04/13 04:57:58;;;;;;;80.05;46.38;;;;;;;10.22;40.46;95451.44;5031421;28;20225;-58
2022/04/13 05:00:25;;;;;;;42.33;21.50;;;;;;;11.02;38.82;95459.63;5031187;28;20699;-56
2022/04/13 05:02:53;;;;;;;30.92;17.67;;;;;;;10.61;38.97;95460.91;5031403;28;20239;-60
2022/04/13 05:05:21;;;;;;;26.15;14.88;;;;;;;10.40;39.67;95464.28;5031557;28;20297;-52
2022/04/13 05:07:48;;;;;;;26.40;14.93;;;;;;;10.25;40.35;95466.69;5031547;28;20676;-55
2022/04/13 05:10:15;;;;;;;19.42;10.07;;;;;;;10.43;39.28;95463.81;5030604;28;20251;-58
2022/04/13 05:12:48;;;;;;;21.27;11.40;;;;;;;10.23;39.50;95468.75;5031331;28;20290;-57
2022/04/13 05:15:16;;;;;;;22.15;10.93;;;;;;;9.98;40.20;95473.56;5030956;28;20539;-54
2022/04/13 05:17:43;;;;;;;19.50;10.70;;;;;;;10.20;40.44;95471.81;5030942;28;20233;-55
2022/04/13 05:20:10;;;;;;;17.17;10.75;;;;;;;9.67;41.19;95487.16;5030596;28;20301;-57
2022/04/13 05:22:37;;;;;;;18.83;11.00;;;;;;;10.36;40.31;95476.28;5031091;28;20205;-55
2022/04/13 05:25:16;;;;;;;23.10;11.63;;;;;;;10.02;43.92;95482.50;5030790;28;20263;-61
2022/04/13 05:27:44;;;;;;;42.30;24.95;;;;;;;10.92;40.19;95483.09;5031767;28;20215;-57
2022/04/13 05:30:15;;;;;;;18.25;11.35;;;;;;;10.92;39.24;95473.41;5030905;28;20259;-57
2022/04/13 05:32:58;;;;;;;19.63;10.38;;;;;;;11.49;38.20;95479.06;5030519;28;20212;-58
2022/04/13 05:35:27;;;;;;;21.58;10.98;;;;;;;11.14;38.38;95468.94;5031039;28;20224;-57
2022/04/13 05:38:12;;;;;;;20.23;11.57;;;;;;;11.11;38.72;95477.28;5031383;28;20216;-55
2022/04/13 05:40:39;;;;;;;21.20;12.05;;;;;;;11.06;38.63;95474.63;5029263;28;20299;-53
2022/04/13 05:43:06;;;;;;;22.23;11.27;;;;;;;10.78;39.60;95477.41;5027436;28;20194;-57
2022/04/13 05:45:33;;;;;;;18.33;11.95;;;;;;;11.37;38.58;95480.22;5026591;28;20244;-53
2022/04/13 05:48:01;;;;;;;19.53;11.90;;;;;;;11.40;38.67;95479.72;5029095;28;20205;-55
2022/04/13 05:50:28;;;;;;;25.03;10.93;;;;;;;12.12;37.34;95475.72;5028069;28;20471;-61
2022/04/13 05:52:55;;;;;;;20.77;11.75;;;;;;;11.81;38.10;95471.25;5029013;28;20533;-56
2022/04/13 05:55:22;;;;;;;26.13;11.70;;;;;;;11.42;38.27;95480.28;5030016;28;20647;-54
2022/04/13 05:57:49;;;;;;;21.90;11.18;;;;;;;12.80;36.02;95473.06;5030501;28;20444;-54
2022/04/13 06:00:16;;;;;;;17.90;11.20;;;;;;;13.22;35.09;95473.03;5030446;28;20220;-58
2022/04/13 06:02:43;;;;;;;25.10;11.70;;;;;;;13.40;35.04;95463.88;5031026;28;20452;-59
2022/04/13 06:05:11;;;;;;;22.17;9.93;;;;;;;13.59;34.75;95483.44;5030273;28;20439;-54
2022/04/13 06:07:40;;;;;;;15.50;9.73;;;;;;;13.76;34.33;95476.88;5030657;28;20535;-57
2022/04/13 06:10:08;;;;;;;14.60;10.33;;;;;;;13.82;34.38;95478.47;5030343;28;20934;-56
2022/04/13 06:12:35;;;;;;;20.43;11.13;;;;;;;13.77;34.57;95480.31;5030396;28;20505;-59
2022/04/13 06:15:06;;;;;;;15.93;10.10;;;;;;;14.00;34.00;95485.06;5030068;28;20452;-56
2022/04/13 06:17:34;;;;;;;19.10;11.93;;;;;;;14.06;34.53;95484.03;5030035;28;20475;-59
2022/04/13 06:20:01;;;;;;;18.17;10.57;;;;;;;14.27;33.84;95480.38;5030546;28;20494;-57
2022/04/13 06:22:32;;;;;;;20.77;10.80;;;;;;;14.42;34.30;95477.75;5030191;28;20440;-56
2022/04/13 06:25:03;;;;;;;18.23;9.93;;;;;;;14.18;34.36;95476.66;5029910;28;20515;-59
2022/04/13 06:27:30;;;;;;;14.60;8.33;;;;;;;14.51;33.32;95475.34;5030340;28;20444;-55
2022/04/13 06:29:57;;;;;;;13.63;8.83;;;;;;;14.64;33.09;95480.88;5029472;28;20444;-53
2022/04/13 06:32:38;;;;;;;12.53;9.03;;;;;;;15.00;32.94;95476.31;5029753;28;20447;-55
2022/04/13 06:35:07;;;;;;;14.13;8.60;;;;;;;14.67;33.47;95459.25;5029740;28;20444;-60
2022/04/13 06:37:43;;;;;;;13.43;8.07;;;;;;;14.78;33.39;95481.91;5029971;28;20805;-57
2022/04/13 06:40:11;;;;;;;16.50;8.77;;;;;;;15.01;33.06;95484.00;5029441;28;20984;-56
2022/04/13 06:42:39;;;;;;;18.10;9.43;;;;;;;15.04;32.86;95480.81;5029811;28;20439;-56
2022/04/13 06:45:12;;;;;;;17.63;9.40;;;;;;;14.91;33.03;95475.28;5029694;28;20455;-58
2022/04/13 06:47:40;;;;;;;21.93;9.73;;;;;;;14.97;33.41;95480.31;5030230;28;20455;-60
2022/04/13 06:50:08;;;;;;;15.97;10.43;;;;;;;14.67;33.21;95472.44;5029568;28;20432;-53
2022/04/13 06:52:37;;;;;;;19.00;10.23;;;;;;;15.02;33.08;95482.91;5029479;28;20451;-55
2022/04/13 06:55:05;;;;;;;35.97;9.90;;;;;;;15.17;32.67;95474.97;5028520;28;20966;-56
2022/04/13 06:57:33;;;;;;;19.07;10.20;;;;;;;15.36;33.43;95469.09;5030279;28;20443;-52
2022/04/13 07:00:00;;;;;;;17.53;10.30;;;;;;;15.53;33.25;95469.56;5030092;28;20549;-58
2022/04/13 07:02:28;;;;;;;19.00;10.40;;;;;;;15.55;33.49;95475.34;5029396;28;21304;-53
2022/04/13 07:04:55;;;;;;;21.23;10.23;;;;;;;15.53;32.96;95466.94;5029150;28;20439;-56
2022/04/13 07:07:22;;;;;;;14.03;8.53;;;;;;;15.64;32.82;95468.44;5029790;28;20446;-53
2022/04/13 07:09:49;;;;;;;14.57;8.60;;;;;;;15.85;33.38;95468.06;5029954;28;20451;-56
2022/04/13 07:12:16;;;;;;;14.60;8.53;;;;;;;16.05;32.35;95467.13;5029672;28;20433;-56
2022/04/13 07:14:43;;;;;;;11.23;7.40;;;;;;;16.28;31.73;95473.59;5029235;28;20490;-53
2022/04/13 07:17:10;;;;;;;9.70;6.80;;;;;;;15.76;30.59;95474.19;5029245;28;20463;-51
2022/04/13 07:19:37;;;;;;;9.27;6.50;;;;;;;16.14;30.82;95468.13;5029105;28;20476;-56
2022/04/13 07:22:04;;;;;;;13.00;7.47;;;;;;;16.29;30.75;95470.66;5029699;28;20454;-56
2022/04/13 07:24:38;;;;;;;12.80;7.33;;;;;;;16.10;30.60;95472.38;5029335;28;20447;-60
2022/04/13 07:27:05;;;;;;;12.80;6.83;;;;;;;16.29;30.47;95470.66;5029314;28;20470;-53
2022/04/13 07:29:32;;;;;;;12.50;7.40;;;;;;;16.72;29.11;95474.28;5028958;28;20444;-56
2022/04/13 07:31:59;;;;;;;17.13;7.03;;;;;;;16.13;30.04;95469.16;5029350;28;20530;-57
2022/04/13 07:34:26;;;;;;;13.17;6.80;;;;;;;16.69;29.43;95470.34;5028806;28;20432;-63
2022/04/13 07:36:53;;;;;;;14.90;7.37;;;;;;;16.21;29.64;95479.19;5029518;28;20440;-56
2022/04/13 07:39:20;;;;;;;17.67;7.17;;;;;;;16.23;29.32;95471.75;5029272;28;20487;-58
2022/04/13 07:41:47;;;;;;;9.27;6.40;;;;;;;16.27;29.25;95467.50;5029197;28;20622;-59
2022/04/13 07:44:14;;;;;;;14.30;6.50;;;;;;;16.85;29.14;95458.53;5029176;28;20431;-54
2022/04/13 07:46:41;;;;;;;12.80;6.73;;;;;;;17.14;29.58;95472.50;5028971;28;20450;-54
2022/04/13 07:49:09;;;;;;;12.03;7.30;;;;;;;17.41;29.66;95460.56;5029348;28;20440;-53
2022/04/13 07:51:39;;;;;;;20.30;7.10;;;;;;;17.84;28.80;95465.56;5028904;28;20436;-51
2022/04/13 07:54:06;;;;;;;25.97;8.10;;;;;;;18.05;28.87;95460.75;5029223;28;20444;-54
2022/04/13 07:56:53;;;;;;;18.33;6.73;;;;;;;17.98;28.92;95460.31;5028862;28;20450;-55
2022/04/13 07:59:20;;;;;;;12.77;7.27;;;;;;;18.11;28.71;95464.91;5028750;28;20562;-55
2022/04/13 08:01:47;;;;;;;14.40;6.60;;;;;;;17.26;27.17;95466.03;5029147;28;20496;-57
2022/04/13 08:04:14;;;;;;;13.27;7.20;;;;;;;17.08;27.89;95462.25;5028934;28;20443;-54
2022/04/13 08:06:54;;;;;;;12.13;6.67;;;;;;;16.90;28.43;95461.13;5029107;28;20440;-57
2022/04/13 08:09:22;;;;;;;15.57;7.53;;;;;;;16.91;28.69;95468.00;5028430;28;20436;-55
2022/04/13 08:11:52;;;;;;;13.47;7.10;;;;;;;17.04;28.07;95458.59;5028932;28;20455;-61
2022/04/13 08:14:20;;;;;;;14.10;7.37;;;;;;;18.28;27.09;95449.28;5029748;28;21037;-51
2022/04/13 08:16:47;;;;;;;10.40;6.67;;;;;;;18.45;27.81;95454.06;5032495;28;20471;-59
2022/04/13 08:19:15;;;;;;;16.43;8.43;;;;;;;18.77;28.06;95446.88;5032900;28;20530;-54
2022/04/13 08:21:41;;;;;;;12.27;7.50;;;;;;;19.04;27.21;95452.22;5032495;28;20462;-57
2022/04/13 08:24:09;;;;;;;13.57;7.73;;;;;;;19.06;27.54;95455.34;5032689;28;20881;-60
2022/04/13 08:26:36;;;;;;;12.10;6.70;;;;;;;18.83;26.75;95450.22;5032446;28;20431;-56
2022/04/13 08:29:03;;;;;;;11.63;7.10;;;;;;;19.32;27.40;95447.72;5032560;28;20973;-54
2022/04/13 08:31:30;;;;;;;7.87;5.73;;;;;;;19.79;25.91;95441.13;5032675;28;20447;-58
2022/04/13 08:33:57;;;;;;;15.93;6.57;;;;;;;19.71;24.86;95444.50;5031986;28;20456;-56
2022/04/13 08:36:24;;;;;;;15.20;7.90;;;;;;;19.69;24.70;95447.44;5032160;28;20476;-59
2022/04/13 08:38:50;;;;;;;16.90;7.43;;;;;;;19.87;24.82;95443.09;5032193;28;21023;-56
2022/04/13 08:41:36;;;;;;;11.27;6.33;;;;;;;19.67;24.07;95446.19;5032194;28;20840;-51
2022/04/13 08:44:11;;;;;;;14.53;5.90;;;;;;;19.64;23.70;95439.59;5031855;28;20439;-55
2022/04/13 08:46:40;;;;;;;14.47;5.40;;;;;;;19.54;24.18;95434.50;5032139;28;21398;-57
2022/04/13 08:49:09;;;;;;;13.47;5.77;;;;;;;19.54;23.76;95433.72;5030633;28;20842;-59
2022/04/13 08:52:02;;;;;;;6.37;4.90;;;;;;;20.18;23.45;95428.03;5031862;28;20539;-56
2022/04/13 08:54:31;;;;;;;12.80;4.80;;;;;;;20.27;22.64;95420.91;5030986;28;20871;-55
2022/04/13 08:56:58;;;;;;;6.87;5.00;;;;;;;20.53;22.39;95419.16;5032320;28;20447;-56
2022/04/13 09:00:05;;;;;;;6.10;4.27;;;;;;;20.64;22.00;95423.16;5032100;28;20468;-57
2022/04/13 09:02:50;;;;;;;5.90;4.53;;;;;;;20.36;20.46;95416.41;5031794;28;21083;-55
2022/04/13 09:05:19;;;;;;;10.00;4.70;;;;;;;20.03;21.24;95417.72;5030803;28;20440;-54
2022/04/13 09:07:52;;;;;;;7.53;4.40;;;;;;;20.35;26.85;95422.81;5031240;28;20538;-62
2022/04/13 09:10:21;;;;;;;14.17;5.10;;;;;;;20.33;22.38;95409.03;5030733;28;20950;-55
2022/04/13 09:12:50;;;;;;;15.47;5.90;;;;;;;20.23;22.89;95414.59;5030047;28;20822;-56
2022/04/13 09:15:17;;;;;;;18.67;5.20;;;;;;;20.54;21.38;95410.09;5031249;28;20444;-55
2022/04/13 09:17:44;;;;;;;8.80;3.33;;;;;;;20.71;20.06;95398.75;5031469;28;20928;-59
2022/04/13 09:20:12;;;;;;;7.83;3.90;;;;;;;20.89;19.71;95400.41;5030995;28;21013;-54
2022/04/13 09:22:41;;;;;;;7.97;4.37;;;;;;;20.76;19.41;95396.75;5031787;28;20423;-55
2022/04/13 09:25:09;;;;;;;6.53;4.13;;;;;;;20.97;19.85;95387.09;5030090;28;20517;-57
2022/04/13 09:27:38;;;;;;;6.03;3.27;;;;;;;21.18;17.90;95393.47;5031367;28;20459;-55
2022/04/13 09:30:07;;;;;;;10.07;3.70;;;;;;;20.66;19.51;95399.66;5031023;28;20440;-59
2022/04/13 09:32:34;;;;;;;5.90;3.60;;;;;;;20.90;19.62;95392.09;5031416;28;20436;-59
2022/04/13 09:35:02;;;;;;;9.03;3.70;;;;;;;21.31;18.77;95386.47;5030631;28;20436;-52
2022/04/13 09:37:31;;;;;;;5.67;4.00;;;;;;;21.97;18.43;95382.59;5031455;28;20518;-59
2022/04/13 09:39:59;;;;;;;7.50;4.00;;;;;;;21.43;17.82;95389.31;5031063;28;20513;-61
2022/04/13 09:42:29;;;;;;;6.13;4.10;;;;;;;20.76;18.15;95386.09;5030974;28;20996;-56
2022/04/13 09:45:02;;;;;;;4.53;3.47;;;;;;;21.65;18.91;95386.50;5030600;28;20436;-60
2022/04/13 09:47:33;;;;;;;6.17;3.97;;;;;;;22.13;18.22;95375.72;5030909;28;20446;-55
2022/04/13 09:50:00;;;;;;;9.13;5.57;;;;;;;21.47;17.16;95378.78;5030433;28;20448;-59
2022/04/13 09:52:37;;;;;;;9.37;5.97;;;;;;;22.12;18.34;95382.13;5030728;28;20447;-61
2022/04/13 09:55:05;;;;;;;4.90;3.50;;;;;;;22.30;17.10;95364.97;5029801;28;20561;-57
2022/04/13 09:57:32;;;;;;;9.00;3.63;;;;;;;22.55;16.87;95366.88;5030568;28;21027;-53
2022/04/13 10:00:00;;;;;;;9.13;4.03;;;;;;;22.38;16.62;95361.53;5030084;28;20507;-60
2022/04/13 10:02:39;;;;;;;5.50;3.33;;;;;;;22.38;16.10;95358.84;5030594;28;20440;-54
2022/04/13 10:05:19;;;;;;;6.47;3.70;;;;;;;22.53;16.22;95363.69;5030105;28;20451;-58
2022/04/13 10:08:03;;;;;;;5.83;3.53;;;;;;;23.43;17.30;95348.22;5030718;28;20432;-64
2022/04/13 10:10:30;;;;;;;5.87;3.47;;;;;;;22.94;15.99;95355.06;5030020;28;20447;-56
2022/04/13 10:12:57;;;;;;;4.17;3.40;;;;;;;21.33;16.59;95354.16;5030509;28;20435;-64
2022/04/13 10:15:24;;;;;;;7.10;3.80;;;;;;;21.03;17.10;95361.94;5029659;28;20550;-64
2022/04/13 10:17:58;;;;;;;5.67;3.70;;;;;;;22.86;15.89;95351.31;5029876;28;21155;-57
2022/04/13 10:20:41;;;;;;;6.57;3.77;;;;;;;21.55;16.22;95364.69;5029941;28;20532;-55
2022/04/13 10:23:08;;;;;;;5.97;3.73;;;;;;;20.32;17.02;95351.56;5029935;28;20444;-57
2022/04/13 10:25:35;;;;;;;6.03;3.43;;;;;;;21.29;16.79;95355.88;5029270;28;20442;-52
2022/04/13 10:28:03;;;;;;;5.20;3.50;;;;;;;22.98;15.57;95338.06;5030022;28;20443;-59
2022/04/13 10:30:33;;;;;;;4.30;3.13;;;;;;;21.85;15.95;95345.91;5029675;28;20489;-61
2022/04/13 10:33:12;;;;;;;7.50;3.57;;;;;;;22.10;15.87;95338.94;5030231;28;20440;-58
2022/04/13 10:35:43;;;;;;;6.90;3.13;;;;;;;23.58;15.43;95326.22;5029360;28;20456;-60
2022/04/13 10:38:12;;;;;;;5.13;3.20;;;;;;;23.41;15.22;95324.47;5029873;28;20432;-63
2022/04/13 10:40:43;;;;;;;11.00;3.30;;;;;;;23.90;14.86;95338.91;5029306;28;21203;-55
2022/04/13 10:43:11;;;;;;;5.50;3.30;;;;;;;23.93;15.24;95330.19;5029501;28;20449;-59
2022/04/13 10:45:40;;;;;;;5.03;3.50;;;;;;;23.41;15.44;95323.69;5029101;28;20448;-60
2022/04/13 10:48:09;;;;;;;8.53;3.43;;;;;;;23.80;15.14;95325.91;5030052;28;20451;-58
2022/04/13 10:51:00;;;;;;;6.93;3.53;;;;;;;24.31;15.78;95320.09;5029262;28;20539;-61
2022/04/13 10:53:35;;;;;;;6.47;3.13;;;;;;;24.45;14.77;95309.84;5029653;28;20458;-63
2022/04/13 10:56:04;;;;;;;5.10;3.33;;;;;;;24.50;13.98;95312.31;5029555;28;20654;-62
2022/04/13 10:59:00;;;;;;;4.70;2.50;;;;;;;24.07;13.50;95314.66;5029621;28;20451;-61
2022/04/13 11:01:31;;;;;;;5.73;3.83;;;;;;;24.24;15.25;95319.06;5028650;28;20432;-58
2022/04/13 11:03:58;;;;;;;5.50;3.90;;;;;;;24.78;15.29;95313.25;5029610;28;20475;-57
2022/04/13 11:06:27;;;;;;;9.30;3.97;;;;;;;24.76;14.61;95312.81;5028745;28;20448;-62
2022/04/13 11:09:12;;;;;;;5.13;3.70;;;;;;;23.49;14.82;95314.81;5029576;28;21002;-60
2022/04/13 11:11:40;;;;;;;8.23;3.50;;;;;;;24.80;15.01;95305.66;5028514;28;20196;-61
2022/04/13 11:14:21;;;;;;;4.77;2.53;;;;;;;24.99;13.47;95305.91;5029066;28;20212;-57
2022/04/13 11:16:52;;;;;;;5.13;3.50;;;;;;;24.54;13.86;95307.84;5028861;28;20239;-59
2022/04/13 11:19:20;;;;;;;7.67;3.33;;;;;;;22.82;14.34;95312.22;5028993;28;20221;-59
2022/04/13 11:21:50;;;;;;;5.40;3.27;;;;;;;23.57;13.91;95300.59;5029093;28;20448;-55
2022/04/13 11:24:41;;;;;;;5.20;3.37;;;;;;;23.73;14.07;95299.69;5029165;28;20217;-56
2022/04/13 11:27:10;;;;;;;12.90;9.00;;;;;;;25.19;14.39;95290.00;5029491;28;20231;-61
2022/04/13 11:29:43;;;;;;;9.10;3.93;;;;;;;26.37;14.68;95278.41;5028665;28;20508;-61
2022/04/13 11:32:16;;;;;;;11.97;4.07;;;;;;;26.63;14.64;95276.00;5029225;28;20268;-62
2022/04/13 11:34:52;;;;;;;6.07;3.90;;;;;;;26.37;13.33;95275.72;5028090;28;20185;-63
2022/04/13 11:37:21;;;;;;;10.63;3.43;;;;;;;26.48;13.42;95265.25;5029155;28;20667;-57